Time;durP1;ratioP1;P1;durP2;ratioP2;P2;SDS_P1;SDS_P2;PMS_P1;PMS_P2;Temp;Humidity;BMP_temperature;BMP_pressure;BME280_temperature;BME280_humidity;BME280_pressure;Samples;Min_cycle;Max_cycle;Signal;HPM_P1;HPM_P2
2022/01/05 00:00:13;;;;;;;0.63;0.60;;;;;;;6.13;82.31;97268.06;2627658;54;20037;-71
2022/01/05 00:02:45;;;;;;;0.93;0.70;;;;;;;6.18;82.32;97263.00;2627532;54;20035;-70
2022/01/05 00:05:15;;;;;;;1.48;0.63;;;;;;;6.18;81.94;97252.53;2625941;54;20033;-70
2022/01/05 00:07:45;;;;;;;5.03;1.08;;;;;;;6.23;82.01;97244.84;2626781;54;20030;-70
2022/01/05 00:10:14;;;;;;;1.23;1.00;;;;;;;6.19;82.12;97239.19;2626069;39;20406;-71
2022/01/05 00:12:44;;;;;;;2.08;1.08;;;;;;;6.22;82.19;97235.38;2626548;54;20069;-70
2022/01/05 00:15:14;;;;;;;1.10;0.75;;;;;;;6.16;81.89;97234.38;2626259;54;20058;-71
2022/01/05 00:17:46;;;;;;;0.73;0.70;;;;;;;6.18;81.75;97224.47;2624640;39;20477;-71
2022/01/05 00:20:15;;;;;;;0.90;0.77;;;;;;;6.18;81.53;97221.03;2620133;54;20054;-70
2022/01/05 00:22:45;;;;;;;0.70;0.70;;;;;;;6.26;81.77;97233.94;2619447;54;20070;-69
2022/01/05 00:25:15;;;;;;;1.52;0.65;;;;;;;6.29;81.52;97230.94;2619327;39;20422;-70
2022/01/05 00:27:44;;;;;;;0.65;0.63;;;;;;;6.30;81.58;97216.78;2618768;47;20030;-70
2022/01/05 00:30:14;;;;;;;0.80;0.70;;;;;;;6.37;81.58;97220.22;2618849;47;20086;-70
2022/01/05 00:32:46;;;;;;;2.17;0.60;;;;;;;6.38;81.15;97210.53;2619364;54;20034;-70
2022/01/05 00:35:16;;;;;;;1.80;0.80;;;;;;;6.37;80.84;97207.09;2619316;54;20074;-71
2022/01/05 00:37:46;;;;;;;1.70;0.80;;;;;;;6.31;80.22;97199.22;2619653;39;20446;-70
2022/01/05 00:40:15;;;;;;;3.67;1.13;;;;;;;6.30;80.68;97202.84;2618746;47;20074;-71
2022/01/05 00:42:45;;;;;;;1.40;0.93;;;;;;;6.30;80.62;97200.22;2621223;39;20422;-71
2022/01/05 00:45:15;;;;;;;1.02;0.90;;;;;;;6.34;80.62;97206.69;2621720;54;20041;-71
2022/01/05 00:47:47;;;;;;;1.58;1.17;;;;;;;6.35;80.79;97206.47;2624074;47;20038;-69
2022/01/05 00:50:17;;;;;;;1.75;1.10;;;;;;;6.36;80.64;97207.28;2625606;54;20034;-71
2022/01/05 00:52:46;;;;;;;2.13;1.17;;;;;;;6.37;80.52;97206.28;2625169;46;20034;-69
2022/01/05 00:55:16;;;;;;;2.47;1.13;;;;;;;6.39;80.54;97197.19;2625124;47;20033;-70
2022/01/05 00:57:46;;;;;;;3.63;1.60;;;;;;;6.36;80.72;97197.56;2625187;46;20040;-70
2022/01/05 01:00:16;;;;;;;3.58;1.20;;;;;;;6.36;80.45;97189.72;2625080;54;20038;-70
2022/01/05 01:02:48;;;;;;;2.30;1.40;;;;;;;6.38;80.39;97207.91;2625230;54;20026;-70
2022/01/05 01:05:18;;;;;;;4.50;1.70;;;;;;;6.40;80.52;97211.09;2623747;47;20023;-70
2022/01/05 01:07:48;;;;;;;4.25;1.85;;;;;;;6.40;80.22;97219.78;2619156;54;20030;-70
2022/01/05 01:10:18;;;;;;;3.83;1.50;;;;;;;6.41;80.37;97218.00;2618788;47;20030;-69
2022/01/05 01:12:48;;;;;;;2.35;1.50;;;;;;;6.44;80.47;97214.94;2618653;46;20534;-70
2022/01/05 01:15:17;;;;;;;2.53;1.52;;;;;;;6.47;80.27;97218.97;2619101;54;20042;-70
2022/01/05 01:17:50;;;;;;;3.28;1.60;;;;;;;6.47;80.78;97222.41;2618351;54;20064;-70
2022/01/05 01:20:20;;;;;;;3.05;1.50;;;;;;;6.42;80.78;97238.78;2618562;54;20049;-70
2022/01/05 01:22:50;;;;;;;3.05;1.60;;;;;;;6.40;80.66;97238.16;2618619;47;20055;-70
2022/01/05 01:25:20;;;;;;;3.95;1.73;;;;;;;6.41;80.64;97228.50;2619168;54;20038;-69
2022/01/05 01:27:49;;;;;;;3.35;1.65;;;;;;;6.39;80.53;97230.50;2618421;54;20042;-69
2022/01/05 01:30:19;;;;;;;2.45;1.45;;;;;;;6.40;80.66;97240.78;2619301;54;20074;-70
2022/01/05 01:32:51;;;;;;;2.35;1.75;;;;;;;6.43;80.57;97240.38;2618445;47;20026;-70
2022/01/05 01:35:21;;;;;;;4.43;1.67;;;;;;;6.41;80.59;97236.38;2618947;54;20034;-70
2022/01/05 01:37:50;;;;;;;5.00;2.25;;;;;;;6.43;80.20;97244.81;2618226;51;20030;-69
2022/01/05 01:40:20;;;;;;;4.18;1.60;;;;;;;6.47;80.08;97253.91;2619445;54;20046;-69
2022/01/05 01:42:50;;;;;;;5.00;2.17;;;;;;;6.51;80.41;97246.44;2619131;39;20490;-69
2022/01/05 01:45:20;;;;;;;2.97;1.70;;;;;;;6.56;80.22;97250.06;2619232;54;20811;-70
2022/01/05 01:47:52;;;;;;;3.92;1.88;;;;;;;6.54;80.32;97243.41;2618202;54;20026;-69
2022/01/05 01:50:22;;;;;;;3.33;2.28;;;;;;;6.48;79.80;97252.09;2618796;54;20034;-68
2022/01/05 01:52:51;;;;;;;5.53;2.15;;;;;;;6.46;79.72;97254.94;2618280;54;20053;-69
2022/01/05 01:55:22;;;;;;;2.53;1.98;;;;;;;6.47;79.87;97248.66;2617873;54;20022;-69
2022/01/05 01:57:52;;;;;;;4.10;2.10;;;;;;;6.41;80.21;97257.38;2617660;50;20037;-69
2022/01/05 02:00:22;;;;;;;3.30;1.70;;;;;;;6.42;80.14;97267.66;2618461;54;20026;-69
2022/01/05 02:02:54;;;;;;;3.30;1.90;;;;;;;6.42;80.32;97261.59;2617630;54;20025;-69
2022/01/05 02:05:24;;;;;;;3.65;2.10;;;;;;;6.48;79.97;97267.84;2619222;54;20059;-69
2022/01/05 02:07:54;;;;;;;4.82;1.98;;;;;;;6.49;79.89;97274.69;2618459;54;20030;-69
2022/01/05 02:10:23;;;;;;;4.03;1.92;;;;;;;6.47;80.13;97274.09;2618501;54;20030;-69
2022/01/05 02:12:53;;;;;;;4.10;1.83;;;;;;;6.47;79.91;97274.09;2618146;47;20053;-69
2022/01/05 02:15:23;;;;;;;1.83;1.70;;;;;;;6.43;80.52;97279.75;2618439;54;20046;-69
2022/01/05 02:18:09;;;;;;;2.10;1.35;;;;;;;6.41;79.97;97268.66;2618044;54;20057;-69
2022/01/05 02:20:39;;;;;;;3.83;1.70;;;;;;;6.41;80.06;97265.25;2618606;39;20407;-69
2022/01/05 02:23:11;;;;;;;1.95;1.58;;;;;;;6.38;79.93;97263.81;2618099;54;20081;-69
2022/01/05 02:25:40;;;;;;;2.22;1.60;;;;;;;6.34;80.44;97277.56;2617557;47;20035;-70
2022/01/05 02:28:10;;;;;;;1.50;1.40;;;;;;;6.32;80.59;97280.34;2617773;54;20039;-69
2022/01/05 02:30:41;;;;;;;1.50;1.40;;;;;;;6.33;80.92;97274.13;2617743;47;20069;-69
2022/01/05 02:33:10;;;;;;;4.45;1.50;;;;;;;6.30;81.05;97278.97;2618048;54;20117;-69
2022/01/05 02:35:40;;;;;;;1.90;1.30;;;;;;;6.25;81.04;97279.56;2618279;54;20038;-68
2022/01/05 02:38:12;;;;;;;4.53;1.55;;;;;;;6.22;81.48;97289.66;2617988;54;20031;-69
2022/01/05 02:40:42;;;;;;;1.95;1.73;;;;;;;6.13;81.78;97305.59;2617727;47;20061;-69
2022/01/05 02:43:12;;;;;;;2.03;1.52;;;;;;;6.10;82.60;97332.22;2618025;54;20041;-69
2022/01/05 02:45:42;;;;;;;1.83;0.85;;;;;;;5.75;79.81;97391.00;2618365;54;20042;-69
2022/01/05 02:48:12;;;;;;;1.73;0.45;;;;;;;4.97;76.54;97420.03;2618358;39;20446;-69
2022/01/05 02:50:42;;;;;;;0.88;0.60;;;;;;;4.44;76.93;97412.53;2617371;54;20081;-69
2022/01/05 02:53:14;;;;;;;0.40;0.40;;;;;;;4.19;77.63;97412.09;2617956;54;20115;-68
2022/01/05 02:55:43;;;;;;;0.40;0.40;;;;;;;4.12;78.76;97426.94;2618070;54;20071;-69
2022/01/05 02:58:13;;;;;;;0.50;0.50;;;;;;;4.08;77.99;97432.69;2618051;54;20053;-68
2022/01/05 03:00:42;;;;;;;0.70;0.50;;;;;;;4.07;77.81;97442.34;2618471;54;20050;-71
2022/01/05 03:03:13;;;;;;;0.30;0.30;;;;;;;4.16;78.31;97454.34;2618562;54;20031;-70
2022/01/05 03:05:42;;;;;;;0.70;0.50;;;;;;;4.25;78.31;97454.25;2619392;54;20041;-70
2022/01/05 03:08:14;;;;;;;0.40;0.40;;;;;;;4.31;77.66;97461.31;2618525;54;20038;-71
2022/01/05 03:10:44;;;;;;;0.40;0.40;;;;;;;4.36;77.96;97466.81;2618020;47;20038;-71
2022/01/05 03:13:14;;;;;;;0.40;0.40;;;;;;;4.37;77.93;97479.72;2618407;54;20033;-71
2022/01/05 03:15:43;;;;;;;0.68;0.40;;;;;;;4.41;77.72;97488.81;2618061;54;20041;-69
2022/01/05 03:18:13;;;;;;;0.32;0.32;;;;;;;4.41;77.58;97493.25;2617675;54;20034;-70
2022/01/05 03:20:42;;;;;;;0.90;0.40;;;;;;;4.42;77.37;97490.44;2617818;54;20046;-69
2022/01/05 03:23:15;;;;;;;0.85;0.50;;;;;;;4.40;77.27;97505.50;2619125;39;20116;-69
2022/01/05 03:25:45;;;;;;;0.40;0.40;;;;;;;4.37;77.33;97502.47;2621779;54;20046;-69
2022/01/05 03:28:14;;;;;;;0.65;0.40;;;;;;;4.33;76.96;97502.03;2623129;54;20042;-69
2022/01/05 03:30:44;;;;;;;0.30;0.30;;;;;;;4.37;77.29;97495.41;2623692;47;20037;-69
2022/01/05 03:33:20;;;;;;;0.60;0.60;;;;;;;4.39;77.04;97497.84;2623610;47;20027;-70
2022/01/05 03:35:50;;;;;;;0.30;0.30;;;;;;;4.46;77.72;97515.25;2623842;54;20038;-70
2022/01/05 03:38:24;;;;;;;0.98;0.60;;;;;;;4.59;77.61;97522.41;2624082;54;20026;-69
2022/01/05 03:40:53;;;;;;;0.70;0.67;;;;;;;4.60;77.33;97533.69;2623950;54;20034;-69
2022/01/05 03:43:23;;;;;;;1.38;0.70;;;;;;;4.56;76.61;97538.47;2624140;54;20038;-69
2022/01/05 03:45:53;;;;;;;0.60;0.57;;;;;;;4.52;76.76;97539.84;2621559;54;20023;-69
2022/01/05 03:48:23;;;;;;;0.40;0.40;;;;;;;4.57;77.04;97553.22;2618636;54;20034;-69
2022/01/05 03:50:53;;;;;;;0.68;0.40;;;;;;;4.58;76.93;97565.28;2618474;54;20038;-69
2022/01/05 03:53:25;;;;;;;0.60;0.60;;;;;;;4.58;76.25;97564.50;2618599;54;20030;-68
2022/01/05 03:55:55;;;;;;;1.58;0.43;;;;;;;4.58;76.35;97562.69;2618294;54;20033;-69
2022/01/05 03:58:25;;;;;;;0.65;0.40;;;;;;;4.60;76.25;97573.75;2618853;54;20031;-68
2022/01/05 04:00:54;;;;;;;1.38;0.70;;;;;;;4.54;75.82;97578.94;2618789;54;20034;-68
2022/01/05 04:03:24;;;;;;;0.50;0.50;;;;;;;4.54;76.27;97584.97;2618992;39;20554;-69
2022/01/05 04:05:54;;;;;;;0.98;0.70;;;;;;;4.55;76.08;97607.53;2619842;39;20426;-68
2022/01/05 04:08:26;;;;;;;1.33;0.60;;;;;;;4.52;75.59;97614.94;2618704;54;20081;-69
2022/01/05 04:10:56;;;;;;;0.50;0.50;;;;;;;4.47;76.24;97613.69;2618781;54;20049;-70
2022/01/05 04:13:25;;;;;;;0.90;0.80;;;;;;;4.42;76.04;97623.09;2618072;47;20034;-69
2022/01/05 04:15:55;;;;;;;1.10;0.80;;;;;;;4.48;76.44;97630.19;2618498;39;20463;-68
2022/01/05 04:18:25;;;;;;;0.77;0.70;;;;;;;4.44;76.37;97632.34;2618681;54;20035;-70
2022/01/05 04:20:54;;;;;;;0.75;0.70;;;;;;;4.45;76.45;97649.69;2618463;54;20042;-71
2022/01/05 04:23:27;;;;;;;0.50;0.50;;;;;;;4.29;75.78;97649.09;2619060;54;20605;-68
2022/01/05 04:25:56;;;;;;;1.25;0.60;;;;;;;4.22;76.81;97647.16;2618745;54;20597;-69
2022/01/05 04:28:26;;;;;;;0.60;0.60;;;;;;;4.10;76.39;97668.72;2618832;54;20037;-69
2022/01/05 04:30:56;;;;;;;0.63;0.60;;;;;;;3.98;76.62;97668.34;2618400;47;20033;-70
2022/01/05 04:33:25;;;;;;;2.45;0.60;;;;;;;3.90;77.31;97674.47;2618638;39;20434;-70
2022/01/05 04:36:15;;;;;;;0.50;0.50;;;;;;;3.85;77.11;97674.19;2618558;54;20117;-70
2022/01/05 04:38:47;;;;;;;1.00;0.68;;;;;;;3.88;77.61;97681.69;2618701;54;20038;-69
2022/01/05 04:41:17;;;;;;;2.05;0.70;;;;;;;3.92;77.31;97685.56;2618822;54;20035;-69
2022/01/05 04:43:46;;;;;;;0.93;0.63;;;;;;;3.96;77.54;97686.03;2618305;47;20054;-70
2022/01/05 04:46:16;;;;;;;1.60;0.75;;;;;;;4.01;77.55;97690.72;2618107;47;20033;-70
2022/01/05 04:48:46;;;;;;;1.50;0.65;;;;;;;4.02;77.94;97694.97;2618258;47;20026;-70
2022/01/05 04:51:15;;;;;;;0.60;0.60;;;;;;;4.07;77.89;97698.66;2618225;54;20034;-70
2022/01/05 04:53:47;;;;;;;0.70;0.70;;;;;;;3.95;76.82;97710.53;2622232;39;20473;-70
2022/01/05 04:56:17;;;;;;;2.17;1.00;;;;;;;3.87;76.83;97702.75;2625621;54;20046;-69
2022/01/05 04:58:47;;;;;;;0.77;0.77;;;;;;;3.84;76.96;97706.56;2625752;54;20022;-71
2022/01/05 05:01:16;;;;;;;2.05;1.20;;;;;;;3.76;76.57;97730.16;2624217;47;20034;-70
2022/01/05 05:03:46;;;;;;;1.02;0.80;;;;;;;3.67;76.43;97726.78;2624664;54;20029;-70
2022/01/05 05:06:16;;;;;;;2.80;0.90;;;;;;;3.57;76.83;97731.44;2624535;47;20039;-71
2022/01/05 05:08:48;;;;;;;1.70;1.48;;;;;;;3.54;77.18;97744.03;2623825;54;20284;-70
2022/01/05 05:11:18;;;;;;;1.67;1.20;;;;;;;3.57;77.26;97747.09;2625051;54;20042;-70
2022/01/05 05:13:48;;;;;;;2.30;1.30;;;;;;;3.57;77.73;97744.50;2624273;54;20034;-70
2022/01/05 05:16:17;;;;;;;5.15;1.50;;;;;;;3.54;77.97;97744.03;2618496;47;20023;-70
2022/01/05 05:18:47;;;;;;;2.88;1.70;;;;;;;3.54;78.14;97752.66;2625593;54;20062;-71
2022/01/05 05:21:17;;;;;;;3.22;1.58;;;;;;;3.54;78.31;97760.50;2624916;47;20027;-71
2022/01/05 07:38:20;;;;;;;12.13;3.88;;;;;;;1.92;70.72;98005.91;2624353;54;20073;-71
2022/01/05 07:40:50;;;;;;;7.28;2.88;;;;;;;1.98;71.08;98009.66;2625971;39;20421;-70
2022/01/05 07:43:22;;;;;;;7.50;3.28;;;;;;;2.04;71.10;98018.63;2626081;39;20481;-71
2022/01/05 07:45:51;;;;;;;9.27;3.80;;;;;;;2.08;71.35;98025.16;2626053;54;20091;-71
2022/01/05 07:48:21;;;;;;;10.43;4.43;;;;;;;2.13;71.00;98025.53;2626081;54;20040;-70
2022/01/05 07:50:51;;;;;;;13.27;4.18;;;;;;;2.13;70.83;98028.13;2626480;54;20034;-70
2022/01/05 07:53:23;;;;;;;10.82;3.88;;;;;;;2.23;71.52;98026.19;2626067;54;20062;-70
2022/01/05 07:55:52;;;;;;;7.88;3.15;;;;;;;2.30;71.21;98024.59;2625901;54;20062;-70
2022/01/05 07:58:23;;;;;;;6.68;3.70;;;;;;;2.24;70.86;98025.22;2626188;54;20055;-70
2022/01/05 08:00:53;;;;;;;7.00;2.72;;;;;;;2.19;71.09;98027.47;2625646;54;20046;-70
2022/01/05 08:03:24;;;;;;;9.48;2.75;;;;;;;2.24;70.71;98035.63;2625961;54;20038;-70
2022/01/05 08:06:14;;;;;;;11.15;2.80;;;;;;;2.26;71.01;98040.72;2626330;39;20537;-69
2022/01/05 08:08:46;;;;;;;10.52;3.20;;;;;;;2.30;71.22;98052.47;2626169;54;20030;-69
2022/01/05 08:11:16;;;;;;;6.05;2.90;;;;;;;2.24;70.89;98053.91;2626535;54;20027;-70
2022/01/05 08:13:46;;;;;;;10.15;3.35;;;;;;;2.29;70.71;98050.84;2625605;47;20038;-69
2022/01/05 08:16:16;;;;;;;10.05;3.10;;;;;;;2.28;70.92;98057.00;2626287;54;20031;-69
2022/01/05 08:18:46;;;;;;;9.13;2.72;;;;;;;2.36;70.80;98059.63;2625660;47;20061;-69
2022/01/05 08:21:16;;;;;;;12.02;3.55;;;;;;;2.37;70.48;98062.13;2626267;54;20052;-69
2022/01/05 08:23:48;;;;;;;7.60;3.10;;;;;;;2.38;70.02;98062.94;2625884;54;20034;-69
2022/01/05 08:26:18;;;;;;;7.50;2.30;;;;;;;2.41;69.91;98068.66;2625673;54;20043;-69
2022/01/05 08:28:48;;;;;;;15.10;2.53;;;;;;;2.48;69.71;98084.47;2625405;54;20037;-70
2022/01/05 08:31:17;;;;;;;11.35;2.90;;;;;;;2.47;69.27;98091.47;2625936;54;20038;-70
2022/01/05 08:33:49;;;;;;;11.00;3.03;;;;;;;2.53;69.71;98097.88;2626293;54;20042;-70
2022/01/05 08:36:18;;;;;;;12.38;3.15;;;;;;;2.53;69.53;98092.66;2626203;54;20045;-69
2022/01/05 08:38:51;;;;;;;10.82;3.83;;;;;;;2.57;69.08;98093.97;2626026;54;20027;-69
2022/01/05 08:41:20;;;;;;;12.55;3.72;;;;;;;2.51;68.68;98094.59;2626204;54;20038;-69
2022/01/05 08:43:50;;;;;;;12.43;3.05;;;;;;;2.49;68.90;98101.78;2626290;54;20034;-69
2022/01/05 08:46:20;;;;;;;8.43;2.95;;;;;;;2.62;69.27;98103.94;2625752;54;20042;-69
2022/01/05 08:48:49;;;;;;;9.38;2.92;;;;;;;2.71;68.79;98106.38;2625629;46;20022;-70
2022/01/05 08:51:19;;;;;;;13.75;4.18;;;;;;;2.76;68.59;98123.34;2626172;54;20038;-69
2022/01/05 08:53:51;;;;;;;16.95;3.53;;;;;;;2.71;68.05;98116.81;2625813;46;20030;-69
2022/01/05 08:56:23;;;;;;;12.05;3.67;;;;;;;2.63;67.69;98123.81;2624688;54;20042;-68
2022/01/05 08:58:53;;;;;;;9.57;2.95;;;;;;;2.68;67.96;98124.97;2625343;54;20557;-67
2022/01/05 09:01:22;;;;;;;12.23;3.40;;;;;;;2.81;68.51;98134.94;2625310;54;20039;-68
2022/01/05 09:03:53;;;;;;;14.20;3.40;;;;;;;2.85;67.97;98136.25;2625219;54;20159;-68
2022/01/05 09:06:23;;;;;;;9.85;3.17;;;;;;;2.87;67.19;98144.75;2624842;54;20031;-68
2022/01/05 09:08:55;;;;;;;10.40;3.83;;;;;;;2.93;67.94;98153.75;2623325;54;20037;-69
2022/01/05 09:11:26;;;;;;;10.43;3.63;;;;;;;2.99;67.92;98153.13;2624204;54;20026;-69
2022/01/05 09:13:56;;;;;;;13.18;4.20;;;;;;;2.90;67.49;98156.69;2624064;54;20034;-69
2022/01/05 09:16:25;;;;;;;12.13;3.92;;;;;;;2.83;66.93;98156.50;2624679;54;20038;-69
2022/01/05 09:18:55;;;;;;;9.90;3.40;;;;;;;2.79;67.09;98154.38;2624132;54;20031;-69
2022/01/05 09:21:24;;;;;;;13.38;3.13;;;;;;;2.83;67.38;98148.66;2623820;54;20038;-67
2022/01/05 09:23:58;;;;;;;13.23;3.65;;;;;;;2.93;67.00;98154.56;2624415;54;20054;-68
2022/01/05 09:26:27;;;;;;;10.87;3.47;;;;;;;3.06;67.41;98161.09;2624086;54;20038;-68
2022/01/05 09:28:57;;;;;;;14.00;3.55;;;;;;;3.22;67.30;98156.75;2623740;47;20034;-68
2022/01/05 09:31:27;;;;;;;7.75;2.95;;;;;;;3.30;66.55;98162.94;2624134;54;20050;-68
2022/01/05 09:33:56;;;;;;;9.48;3.67;;;;;;;3.17;66.31;98168.63;2624109;54;20086;-67
2022/01/05 09:36:32;;;;;;;15.93;3.38;;;;;;;3.12;66.39;98169.13;2623947;54;20062;-68
2022/01/05 09:42:05;;;;;;;11.55;3.10;;;;;;;3.09;66.97;98174.66;2623520;54;20023;-70
2022/01/05 09:44:38;;;;;;;11.20;3.80;;;;;;;3.17;67.28;98174.69;2623250;54;20030;-74
2022/01/05 09:47:29;;;;;;;11.85;3.70;;;;;;;3.09;66.36;98174.66;2623212;54;20041;-68
2022/01/05 09:50:03;;;;;;;10.25;3.50;;;;;;;3.02;67.19;98175.47;2622916;47;20034;-68
2022/01/05 09:52:34;;;;;;;14.32;4.25;;;;;;;3.11;67.46;98182.34;2623770;54;20030;-68
2022/01/05 09:55:08;;;;;;;12.68;3.20;;;;;;;3.13;67.03;98177.78;2623539;54;20581;-67
2022/01/05 09:57:37;;;;;;;;;;;;;;;2.98;66.59;98178.41;2622654;54;20031;-68
2022/01/05 10:00:09;;;;;;;12.07;3.67;;;;;;;2.96;66.68;98180.34;2622132;54;20438;-68
2022/01/05 10:02:43;;;;;;;15.68;3.95;;;;;;;2.96;66.95;98185.56;2622082;54;20061;-67
2022/01/05 10:05:15;;;;;;;21.30;9.63;;;;;;;2.98;66.85;98186.25;2622493;54;20037;-67
2022/01/05 10:07:45;;;;;;;12.98;4.65;;;;;;;3.03;66.67;98184.94;2622005;54;20030;-68
2022/01/05 10:10:17;;;;;;;14.32;3.88;;;;;;;3.07;66.71;98204.53;2622085;54;20042;-70
2022/01/05 10:12:51;;;;;;;9.80;4.03;;;;;;;2.98;65.89;98206.31;2620633;47;20046;-67
2022/01/05 10:15:22;;;;;;;15.85;4.82;;;;;;;2.98;65.92;98208.94;2622737;54;20039;-68
2022/01/05 10:17:51;;;;;;;9.75;3.40;;;;;;;3.04;66.29;98212.69;2623005;54;20027;-69
2022/01/05 10:20:23;;;;;;;10.20;5.05;;;;;;;3.15;66.64;98218.44;2622860;54;20061;-70
2022/01/05 10:22:56;;;;;;;11.98;4.85;;;;;;;3.11;66.48;98224.16;2622774;54;20561;-70
2022/01/05 10:25:28;;;;;;;9.45;3.45;;;;;;;3.07;65.83;98230.66;2622025;47;20034;-69
2022/01/05 10:27:59;;;;;;;10.05;3.65;;;;;;;3.17;66.04;98234.75;2623533;54;20026;-69
2022/01/05 10:30:39;;;;;;;12.63;3.63;;;;;;;3.13;65.74;98240.47;2622887;54;20030;-69
2022/01/05 10:33:10;;;;;;;10.65;3.03;;;;;;;3.14;65.23;98244.69;2622680;54;20041;-70
2022/01/05 10:35:40;;;;;;;15.48;4.13;;;;;;;3.16;65.38;98240.97;2623050;54;20034;-70
2022/01/05 10:38:15;;;;;;;9.68;2.70;;;;;;;3.12;65.19;98250.09;2623422;54;20074;-71
2022/01/05 10:40:48;;;;;;;11.38;3.50;;;;;;;3.18;64.58;98246.84;2624150;39;20735;-69
2022/01/05 10:43:19;;;;;;;6.78;2.20;;;;;;;3.09;63.15;98247.78;2622612;54;20041;-69
2022/01/05 10:45:51;;;;;;;14.07;4.22;;;;;;;3.01;63.56;98257.41;2622520;47;20150;-70
2022/01/05 10:48:25;;;;;;;14.68;4.55;;;;;;;3.09;63.31;98245.19;2622459;54;20178;-70
2022/01/05 10:51:06;;;;;;;12.60;4.03;;;;;;;3.06;62.58;98250.75;2623625;54;20031;-70
2022/01/05 10:53:35;;;;;;;13.18;5.13;;;;;;;3.04;62.86;98254.47;2622665;54;20066;-70
2022/01/05 10:56:08;;;;;;;10.02;3.28;;;;;;;3.14;63.33;98253.38;2623371;39;20746;-70
2022/01/05 10:58:45;;;;;;;10.90;3.95;;;;;;;3.27;63.44;98258.16;2624399;39;20407;-70
2022/01/05 11:01:41;;;;;;;13.32;4.45;;;;;;;3.31;62.91;98262.06;2624954;54;20038;-69
2022/01/05 11:04:19;;;;;;;18.33;6.47;;;;;;;3.27;62.24;98249.50;2624244;54;20035;-70
2022/01/05 11:07:26;;;;;;;66.82;17.92;;;;;;;3.43;62.85;98249.53;2623967;54;20038;-70
2022/01/05 11:10:01;;;;;;;20.35;7.03;;;;;;;3.54;62.85;98261.44;2624615;47;20029;-69
2022/01/05 11:12:40;;;;;;;10.60;3.88;;;;;;;3.52;61.19;98255.59;2625275;54;20034;-69
2022/01/05 11:15:21;;;;;;;12.90;3.70;;;;;;;3.54;61.94;98256.22;2625521;39;20514;-70
2022/01/05 11:18:30;;;;;;;11.10;4.75;;;;;;;3.59;61.46;98261.78;2625260;54;20060;-68
2022/01/05 11:21:03;;;;;;;9.77;3.55;;;;;;;3.55;61.07;98247.41;2626023;54;20141;-69
2022/01/05 11:23:35;;;;;;;9.95;3.45;;;;;;;3.55;61.22;98248.25;2625092;54;20046;-68
2022/01/05 11:26:06;;;;;;;6.50;2.90;;;;;;;3.51;61.00;98235.63;2623113;54;20086;-70
2022/01/05 11:28:38;;;;;;;12.43;3.88;;;;;;;3.43;60.71;98234.66;2624061;54;20529;-68
2022/01/05 11:31:09;;;;;;;8.77;3.90;;;;;;;3.52;61.30;98243.34;2623438;54;20529;-67
2022/01/05 11:33:38;;;;;;;10.40;3.13;;;;;;;3.51;61.51;98254.78;2623694;47;20517;-67
2022/01/05 11:36:09;;;;;;;11.43;3.13;;;;;;;3.62;60.80;98256.22;2623461;54;20074;-68
2022/01/05 11:38:58;;;;;;;11.05;3.88;;;;;;;3.63;61.27;98268.31;2624373;54;20569;-68
2022/01/05 11:41:28;;;;;;;10.52;3.88;;;;;;;3.58;61.32;98273.22;2625108;54;20018;-68
2022/01/05 11:44:02;;;;;;;12.02;2.53;;;;;;;3.56;61.10;98280.41;2624613;54;20045;-68
2022/01/05 11:46:32;;;;;;;9.25;3.17;;;;;;;3.43;61.19;98279.09;2624257;54;20034;-69
2022/01/05 11:49:03;;;;;;;10.75;3.10;;;;;;;3.46;61.56;98278.75;2624705;54;20145;-69
2022/01/05 11:51:48;;;;;;;8.15;3.17;;;;;;;3.50;61.11;98289.69;2624122;54;20031;-69
2022/01/05 11:54:20;;;;;;;12.20;4.45;;;;;;;3.51;61.02;98282.66;2624275;54;20034;-70
2022/01/05 11:56:52;;;;;;;13.52;4.93;;;;;;;3.38;60.38;98288.34;2624641;54;20034;-70
2022/01/05 11:59:33;;;;;;;18.67;6.10;;;;;;;3.36;60.92;98283.31;2624669;54;20052;-69
2022/01/05 12:02:08;;;;;;;17.02;6.22;;;;;;;3.40;61.35;98282.00;2624873;54;20034;-69
2022/01/05 12:05:01;;;;;;;17.17;6.13;;;;;;;3.54;61.46;98284.97;2625352;54;20038;-70
2022/01/05 12:07:39;;;;;;;21.65;5.50;;;;;;;3.53;60.44;98278.94;2624747;54;20066;-70
2022/01/05 12:10:16;;;;;;;16.08;5.65;;;;;;;3.58;60.93;98279.25;2624324;54;20025;-69
2022/01/05 12:12:57;;;;;;;20.08;5.63;;;;;;;3.46;60.77;98281.34;2625320;54;20038;-69
2022/01/05 12:15:53;;;;;;;10.55;3.30;;;;;;;3.46;60.19;98276.13;2624906;54;20031;-69
2022/01/05 12:18:25;;;;;;;10.90;3.95;;;;;;;3.46;60.39;98283.16;2625450;54;20035;-69
2022/01/05 12:20:57;;;;;;;13.70;2.95;;;;;;;3.39;59.39;98280.38;2624911;54;20580;-68
2022/01/05 12:23:28;;;;;;;11.32;3.88;;;;;;;3.37;59.73;98278.91;2625163;54;20042;-70
2022/01/05 12:26:30;;;;;;;8.77;2.47;;;;;;;3.40;59.09;98289.84;2624356;54;20023;-69
2022/01/05 12:29:00;;;;;;;9.05;3.00;;;;;;;3.41;59.41;98286.25;2624481;54;20030;-69
2022/01/05 12:31:58;;;;;;;9.45;3.00;;;;;;;3.39;58.92;98290.03;2624798;54;20031;-69
2022/01/05 12:34:54;;;;;;;12.25;4.45;;;;;;;3.39;59.19;98290.84;2625104;54;20534;-69
2022/01/05 12:37:46;;;;;;;9.95;3.75;;;;;;;3.45;59.30;98287.56;2625528;54;20549;-69
2022/01/05 12:40:32;;;;;;;21.75;7.43;;;;;;;3.57;59.16;98298.53;2624924;54;20034;-69
2022/01/05 12:43:35;;;;;;;15.52;4.75;;;;;;;3.58;59.35;98292.31;2625348;54;20026;-69
2022/01/05 12:46:11;;;;;;;18.25;5.60;;;;;;;3.38;59.31;98307.47;2624662;54;20048;-69
2022/01/05 12:49:06;;;;;;;8.82;3.13;;;;;;;3.32;58.93;98305.50;2625178;54;20038;-69
2022/01/05 12:52:01;;;;;;;9.85;4.00;;;;;;;3.27;59.13;98307.78;2624796;54;20573;-69
2022/01/05 12:54:39;;;;;;;14.13;3.78;;;;;;;3.27;59.74;98320.03;2624546;54;20082;-69
2022/01/05 12:57:09;;;;;;;9.35;3.50;;;;;;;3.27;59.23;98318.22;2626030;39;20461;-69
2022/01/05 12:59:42;;;;;;;12.85;4.55;;;;;;;3.23;59.35;98325.56;2625086;54;20027;-69
2022/01/05 13:02:14;;;;;;;15.90;5.22;;;;;;;3.20;59.65;98325.88;2624858;54;20030;-70
2022/01/05 13:04:49;;;;;;;18.60;4.60;;;;;;;3.34;59.55;98315.78;2626259;39;20451;-69
2022/01/05 13:07:20;;;;;;;18.80;6.00;;;;;;;3.23;59.16;98319.53;2624015;54;20073;-69
2022/01/05 13:09:52;;;;;;;23.80;5.82;;;;;;;3.19;59.34;98331.25;2624986;54;20042;-69
2022/01/05 13:12:23;;;;;;;14.98;4.05;;;;;;;3.14;59.05;98323.91;2625165;54;20034;-69
2022/01/05 13:14:54;;;;;;;14.68;4.13;;;;;;;3.14;59.20;98329.13;2624663;54;20031;-69
2022/01/05 13:17:28;;;;;;;25.27;7.15;;;;;;;3.07;59.26;98316.84;2625142;54;20058;-70
2022/01/05 13:20:03;;;;;;;16.75;4.13;;;;;;;3.05;59.05;98321.38;2625482;54;20015;-69
2022/01/05 13:22:35;;;;;;;8.57;3.20;;;;;;;3.04;58.98;98314.53;2624767;54;20022;-70
2022/01/05 13:25:08;;;;;;;6.25;2.30;;;;;;;3.11;59.11;98311.13;2625069;54;20077;-69
2022/01/05 13:27:39;;;;;;;8.68;2.60;;;;;;;3.12;58.86;98304.94;2624947;54;20548;-69
2022/01/05 13:30:12;;;;;;;10.30;3.13;;;;;;;3.26;59.22;98302.69;2625111;54;20038;-70
2022/01/05 13:32:43;;;;;;;6.05;2.00;;;;;;;3.38;58.64;98288.34;2624443;54;20041;-70
2022/01/05 13:35:18;;;;;;;7.57;2.22;;;;;;;3.46;58.75;98297.03;2624525;54;20027;-71
2022/01/05 13:37:52;;;;;;;8.73;2.60;;;;;;;3.46;58.72;98297.03;2623637;54;20041;-71
2022/01/05 13:40:23;;;;;;;10.98;3.22;;;;;;;3.50;58.64;98301.94;2626036;39;20434;-69
2022/01/05 13:42:57;;;;;;;8.40;2.55;;;;;;;3.39;58.65;98311.75;2624788;54;20042;-69
2022/01/05 13:45:30;;;;;;;7.90;2.28;;;;;;;3.38;58.41;98307.47;2624394;54;20031;-70
2022/01/05 13:48:06;;;;;;;7.07;2.42;;;;;;;3.41;58.97;98301.94;2623813;54;20031;-69
2022/01/05 13:50:40;;;;;;;5.28;1.80;;;;;;;3.35;58.43;98307.00;2618038;54;20035;-66
2022/01/05 13:53:10;;;;;;;;;;;;;;;3.40;58.96;98299.50;2618785;54;20086;-65
2022/01/05 13:55:42;;;;;;;11.80;3.33;;;;;;;3.51;58.72;98296.59;2618559;54;19951;-65
2022/01/05 13:58:17;;;;;;;6.75;2.00;;;;;;;3.57;59.08;98302.94;2617875;54;20554;-65
2022/01/05 14:00:49;;;;;;;7.45;2.33;;;;;;;3.51;59.08;98296.59;2618531;54;20043;-66
2022/01/05 14:03:28;;;;;;;7.88;3.15;;;;;;;3.56;59.13;98301.31;2618532;54;20061;-66
2022/01/05 14:06:01;;;;;;;7.43;3.05;;;;;;;3.58;59.23;98305.41;2618036;54;20034;-65
2022/01/05 14:08:37;;;;;;;8.40;2.80;;;;;;;3.57;59.16;98303.78;2617762;47;20147;-66
2022/01/05 14:11:09;;;;;;;8.85;2.22;;;;;;;3.54;59.16;98304.06;2618713;39;20415;-66
2022/01/05 14:13:47;;;;;;;6.97;2.15;;;;;;;3.58;59.76;98301.97;2617802;47;20577;-65
2022/01/05 14:16:30;;;;;;;9.80;3.17;;;;;;;3.60;59.60;98308.69;2618457;54;20030;-65
2022/01/05 14:19:01;;;;;;;8.88;2.78;;;;;;;3.47;59.08;98313.56;2618899;54;20044;-66
2022/01/05 14:21:36;;;;;;;6.40;2.15;;;;;;;3.42;59.67;98321.03;2619093;39;20421;-65